Terminal Aerodrome Forecast
Issued by NWS

Home | Current Version | Previous Version | Text Only | Print | Product List | Glossary On
Versions: 1 2 3 4 5 6 7 8 9 10 11 12
000
FTUS43 KPAH 171700
TAFCGI
TAF
KCGI 171720Z 1718/1818 18008KT P6SM SCT200
     FM172030 19008KT P6SM SCT050 BKN200
     FM172300 16004KT P6SM BKN045
     FM181100 00000KT P6SM FEW060
     FM181400 01004KT P6SM SCT050=

USA.gov is the U.S. government's official web portal to all federal, state and local government web resources and services.